createdAt,value
2022-10-12T00:00:23.677Z,15.00
2022-10-12T00:03:09.377Z,15.00
2022-10-12T00:06:07.907Z,15.00
2022-10-12T00:08:55.571Z,15.00
2022-10-12T00:11:41.274Z,15.00
2022-10-12T00:14:26.851Z,14.90
2022-10-12T00:17:12.218Z,14.90
2022-10-12T00:19:58.010Z,14.90
2022-10-12T00:22:43.702Z,14.90
2022-10-12T00:25:29.358Z,14.90
2022-10-12T00:28:15.137Z,14.90
2022-10-12T00:31:01.572Z,14.90
2022-10-12T00:33:48.030Z,14.80
2022-10-12T00:36:35.987Z,14.90
2022-10-12T00:39:21.542Z,14.80
2022-10-12T00:42:07.430Z,14.80
2022-10-12T00:44:53.322Z,14.80
2022-10-12T00:47:41.852Z,14.80
2022-10-12T00:50:32.474Z,14.80
2022-10-12T00:53:23.180Z,14.80
2022-10-12T00:56:15.979Z,14.80
2022-10-12T00:59:05.291Z,14.80
2022-10-12T01:01:51.230Z,14.80
2022-10-12T01:04:38.095Z,14.80
2022-10-12T01:07:23.831Z,14.80
2022-10-12T01:10:10.628Z,14.80
2022-10-12T01:12:56.346Z,14.70
2022-10-12T01:16:10.219Z,14.60
2022-10-12T01:19:19.745Z,14.70
2022-10-12T01:22:13.524Z,14.70
2022-10-12T01:25:47.219Z,14.60
2022-10-12T01:28:51.235Z,14.60
2022-10-12T01:31:52.390Z,14.60
2022-10-12T01:34:44.401Z,14.60
2022-10-12T01:37:55.878Z,14.60
2022-10-12T01:40:59.379Z,14.60
2022-10-12T01:43:45.942Z,14.60
2022-10-12T01:46:31.435Z,14.70
2022-10-12T01:49:22.528Z,14.60
2022-10-12T01:52:11.263Z,14.60
2022-10-12T01:55:06.120Z,14.70
2022-10-12T01:58:13.623Z,14.60
2022-10-12T02:01:35.295Z,14.70
2022-10-12T02:04:47.337Z,14.70
2022-10-12T02:08:08.496Z,14.70
2022-10-12T02:11:15.161Z,14.70
2022-10-12T02:14:06.506Z,14.70
2022-10-12T02:17:00.481Z,14.70
2022-10-12T02:19:56.949Z,14.70
2022-10-12T02:22:47.242Z,14.60
2022-10-12T02:25:34.742Z,14.60
2022-10-12T02:28:24.122Z,14.60
2022-10-12T02:31:45.527Z,14.60
2022-10-12T02:34:43.371Z,14.60
2022-10-12T02:37:49.851Z,14.60
2022-10-12T02:40:52.282Z,14.60
2022-10-12T02:43:39.211Z,14.60
2022-10-12T02:46:26.961Z,14.60
2022-10-12T02:49:13.733Z,14.50
2022-10-12T02:51:59.939Z,14.50
2022-10-12T02:54:45.774Z,14.50
2022-10-12T02:57:31.630Z,14.40
2022-10-12T03:00:17.938Z,14.30
2022-10-12T03:03:03.700Z,14.30
2022-10-12T03:05:49.617Z,14.40
2022-10-12T03:08:35.698Z,14.40
2022-10-12T03:11:21.354Z,14.40
2022-10-12T03:14:06.913Z,14.40
2022-10-12T03:16:53.098Z,14.50
2022-10-12T03:19:39.918Z,14.50
2022-10-12T03:22:25.576Z,14.60
2022-10-12T03:25:10.982Z,14.60
2022-10-12T03:27:56.790Z,14.50
2022-10-12T03:30:43.800Z,14.60
2022-10-12T03:33:29.223Z,14.60
2022-10-12T03:36:15.069Z,14.60
2022-10-12T03:39:00.719Z,14.60
2022-10-12T03:41:46.714Z,14.50
2022-10-12T03:44:32.265Z,14.60
2022-10-12T03:47:17.982Z,14.50
2022-10-12T03:50:04.519Z,14.60
2022-10-12T03:52:49.961Z,14.60
2022-10-12T03:55:36.033Z,14.50
2022-10-12T03:58:21.856Z,14.60
2022-10-12T04:01:07.624Z,14.60
2022-10-12T04:03:53.454Z,14.50
2022-10-12T04:06:38.849Z,14.60
2022-10-12T04:09:24.560Z,14.50
2022-10-12T04:12:10.335Z,14.50
2022-10-12T04:14:56.066Z,14.50
2022-10-12T04:17:42.038Z,14.50
2022-10-12T04:20:28.383Z,14.50
2022-10-12T04:23:14.084Z,14.40
2022-10-12T04:25:59.833Z,14.40
2022-10-12T04:28:45.538Z,14.40
2022-10-12T04:31:31.285Z,14.30
2022-10-12T04:34:17.066Z,14.30
2022-10-12T04:37:03.185Z,14.30
2022-10-12T04:39:48.986Z,14.20
2022-10-12T04:42:34.308Z,14.30
2022-10-12T04:45:20.071Z,14.30
2022-10-12T04:48:05.911Z,14.30
2022-10-12T04:50:51.418Z,14.30
2022-10-12T04:53:37.262Z,14.30
2022-10-12T04:56:22.866Z,14.20
2022-10-12T04:59:08.574Z,14.20
2022-10-12T05:01:54.589Z,14.20
2022-10-12T05:04:40.488Z,14.20
2022-10-12T05:07:26.021Z,14.10
2022-10-12T05:10:11.511Z,14.00
2022-10-12T05:12:56.915Z,14.00
2022-10-12T05:15:43.839Z,13.90
2022-10-12T05:18:29.090Z,14.00
2022-10-12T05:21:14.831Z,14.00
2022-10-12T05:24:01.585Z,14.00
2022-10-12T05:26:48.419Z,13.90
2022-10-12T05:29:43.987Z,13.90
2022-10-12T05:32:29.391Z,13.90
2022-10-12T05:35:15.313Z,13.90
2022-10-12T05:38:00.691Z,13.90
2022-10-12T05:40:46.591Z,13.90
2022-10-12T05:43:32.836Z,13.90
2022-10-12T05:46:26.051Z,13.90
2022-10-12T05:49:12.039Z,13.90
2022-10-12T05:51:57.763Z,13.90
2022-10-12T05:54:49.738Z,13.90
2022-10-12T05:57:37.790Z,13.90
2022-10-12T06:00:23.672Z,13.90
2022-10-12T06:03:09.247Z,14.00
2022-10-12T06:05:55.219Z,14.00
2022-10-12T06:08:41.036Z,14.10
2022-10-12T06:11:26.523Z,14.20
2022-10-12T06:14:12.324Z,14.30
2022-10-12T06:16:58.066Z,14.40
2022-10-12T06:19:43.399Z,14.60
2022-10-12T06:22:28.905Z,14.90
2022-10-12T06:25:14.903Z,15.10
2022-10-12T06:28:00.587Z,15.20
2022-10-12T06:30:46.896Z,15.20
2022-10-12T06:33:32.656Z,15.20
2022-10-12T06:36:19.058Z,15.10
2022-10-12T06:39:05.335Z,15.10
2022-10-12T06:41:54.577Z,15.20
2022-10-12T06:44:43.039Z,15.30
2022-10-12T06:47:29.868Z,15.40
2022-10-12T06:50:27.558Z,15.50
2022-10-12T06:53:12.923Z,15.60
2022-10-12T06:55:59.322Z,15.80
2022-10-12T06:58:45.187Z,15.80
2022-10-12T07:01:31.301Z,15.80
2022-10-12T07:04:18.738Z,15.80
2022-10-12T07:07:04.924Z,15.90
2022-10-12T07:09:51.950Z,16.00
2022-10-12T07:12:38.827Z,16.10
2022-10-12T07:15:24.701Z,16.10
2022-10-12T07:18:10.284Z,16.20
2022-10-12T07:20:59.924Z,16.20
2022-10-12T07:23:46.272Z,16.30
2022-10-12T07:26:32.410Z,16.40
2022-10-12T07:29:18.017Z,16.50
2022-10-12T07:32:04.433Z,16.70
2022-10-12T07:34:50.370Z,16.80
2022-10-12T07:37:36.319Z,17.00
2022-10-12T07:40:22.274Z,17.20
2022-10-12T07:43:16.182Z,17.40
2022-10-12T07:46:04.130Z,17.50
2022-10-12T07:48:50.531Z,17.70
2022-10-12T07:51:37.209Z,17.90
2022-10-12T07:54:29.184Z,17.90
2022-10-12T07:57:15.240Z,18.00
2022-10-12T08:00:00.789Z,18.00
2022-10-12T08:02:46.200Z,18.20
2022-10-12T08:05:31.770Z,18.30
2022-10-12T08:08:17.329Z,18.30
2022-10-12T08:11:03.122Z,18.40
2022-10-12T08:13:49.311Z,18.50
2022-10-12T08:16:34.767Z,18.60
2022-10-12T08:19:20.591Z,18.60
2022-10-12T08:22:06.067Z,18.60
2022-10-12T08:24:51.880Z,18.70
2022-10-12T08:27:38.783Z,18.70
2022-10-12T08:30:26.938Z,18.80
2022-10-12T08:33:13.763Z,18.70
2022-10-12T08:36:03.299Z,18.80
2022-10-12T08:38:54.933Z,18.90
2022-10-12T08:41:56.408Z,19.00
2022-10-12T08:45:01.099Z,19.10
2022-10-12T08:47:53.950Z,19.30
2022-10-12T08:50:46.656Z,19.40
2022-10-12T08:53:57.442Z,19.50
2022-10-12T08:56:44.356Z,19.50
2022-10-12T08:59:31.870Z,19.60
2022-10-12T09:02:50.725Z,19.50
2022-10-12T09:06:06.791Z,19.60
2022-10-12T09:09:27.396Z,19.60
2022-10-12T09:12:18.570Z,19.70
2022-10-12T09:15:11.847Z,19.80
2022-10-12T09:17:58.709Z,19.80
2022-10-12T09:20:48.690Z,19.70
2022-10-12T09:23:39.365Z,19.70
2022-10-12T09:26:40.038Z,19.70
2022-10-12T09:29:31.336Z,19.70
2022-10-12T09:32:36.111Z,19.50
2022-10-12T09:35:21.619Z,19.50
2022-10-12T09:38:09.257Z,19.60
2022-10-12T09:40:54.786Z,19.70
2022-10-12T09:43:40.454Z,19.70
2022-10-12T09:46:41.847Z,19.80
2022-10-12T09:49:40.215Z,19.40
2022-10-12T09:52:30.257Z,19.50
2022-10-12T09:55:16.108Z,19.70
2022-10-12T09:58:02.823Z,19.70
2022-10-12T10:01:34.617Z,19.90
2022-10-12T10:04:26.708Z,20.00
2022-10-12T10:07:34.642Z,20.00
2022-10-12T10:10:29.875Z,20.10
2022-10-12T10:13:16.859Z,20.20
2022-10-12T10:16:05.212Z,20.30
2022-10-12T10:18:57.688Z,20.30
2022-10-12T10:21:43.331Z,20.30
2022-10-12T10:24:32.343Z,20.40
2022-10-12T10:27:30.302Z,20.40
2022-10-12T10:30:29.527Z,20.70
2022-10-12T10:33:19.291Z,20.30
2022-10-12T10:36:22.268Z,20.30
2022-10-12T10:39:18.406Z,20.30
2022-10-12T10:42:20.602Z,20.20
2022-10-12T10:45:08.907Z,20.30
2022-10-12T10:48:01.706Z,20.40
2022-10-12T10:51:02.829Z,20.60
2022-10-12T10:53:50.814Z,20.60
2022-10-12T10:56:37.737Z,20.60
2022-10-12T10:59:37.200Z,20.70
2022-10-12T11:02:39.812Z,20.80
2022-10-12T11:05:32.455Z,20.70
2022-10-12T11:08:25.383Z,20.70
2022-10-12T11:11:23.051Z,20.80
2022-10-12T11:14:13.073Z,20.80
2022-10-12T11:17:06.744Z,20.80
2022-10-12T11:20:01.999Z,20.90
2022-10-12T11:22:52.861Z,20.90
2022-10-12T11:26:01.013Z,21.00
2022-10-12T11:28:46.932Z,21.00
2022-10-12T11:31:44.658Z,21.00
2022-10-12T11:34:37.263Z,21.00
2022-10-12T11:37:33.447Z,21.00
2022-10-12T11:41:02.542Z,21.10
2022-10-12T11:43:44.293Z,21.20
2022-10-12T11:46:37.053Z,21.30
2022-10-12T11:49:37.823Z,21.30
2022-10-12T11:52:28.889Z,21.30
2022-10-12T11:55:29.763Z,21.30
2022-10-12T11:58:36.449Z,21.20
2022-10-12T12:01:39.660Z,21.20
2022-10-12T12:04:41.798Z,21.20
2022-10-12T12:07:37.685Z,21.00
2022-10-12T12:10:26.704Z,21.00
2022-10-12T12:13:13.219Z,21.10
2022-10-12T12:15:59.325Z,21.20
2022-10-12T12:19:03.908Z,21.30
2022-10-12T12:22:14.794Z,21.40
2022-10-12T12:25:11.115Z,21.40
2022-10-12T12:27:58.386Z,21.40
2022-10-12T12:31:01.214Z,21.30
2022-10-12T12:33:49.455Z,21.40
2022-10-12T12:36:38.526Z,21.50
2022-10-12T12:39:34.742Z,21.50
2022-10-12T12:42:32.099Z,21.50
2022-10-12T12:45:33.827Z,21.50
2022-10-12T12:48:41.583Z,21.60
2022-10-12T12:51:39.143Z,21.60
2022-10-12T12:54:25.510Z,21.70
2022-10-12T12:57:26.728Z,21.70
2022-10-12T13:00:18.597Z,21.80
2022-10-12T13:03:35.932Z,21.70
2022-10-12T13:06:28.035Z,21.60
2022-10-12T13:09:45.014Z,21.50
2022-10-12T13:13:08.675Z,21.30
2022-10-12T13:15:54.216Z,21.30
2022-10-12T13:19:05.431Z,21.30
2022-10-12T13:21:55.042Z,21.30
2022-10-12T13:24:50.211Z,21.30
2022-10-12T13:27:41.862Z,21.30
2022-10-12T13:30:41.281Z,21.30
2022-10-12T13:33:38.817Z,21.40
2022-10-12T13:36:25.532Z,21.50
2022-10-12T13:39:19.238Z,21.60
2022-10-12T13:42:05.352Z,21.60
2022-10-12T13:44:51.101Z,21.60
2022-10-12T13:47:42.542Z,21.70
2022-10-12T13:50:33.493Z,21.70
2022-10-12T13:53:19.387Z,21.80
2022-10-12T13:56:15.538Z,21.80
2022-10-12T13:59:06.695Z,21.70
2022-10-12T14:02:00.699Z,21.60
2022-10-12T14:04:46.467Z,21.60
2022-10-12T14:07:38.104Z,21.60
2022-10-12T14:10:31.728Z,21.60
2022-10-12T14:13:33.104Z,21.70
2022-10-12T14:16:19.015Z,21.70
2022-10-12T14:19:35.103Z,21.80
2022-10-12T14:22:28.966Z,21.80
2022-10-12T14:25:55.227Z,21.80
2022-10-12T14:28:40.900Z,21.80
2022-10-12T14:31:54.470Z,21.70
2022-10-12T14:35:02.902Z,21.70
2022-10-12T14:37:50.335Z,21.70
2022-10-12T14:40:39.371Z,21.60
2022-10-12T14:43:28.347Z,21.60
2022-10-12T14:46:13.886Z,21.60
2022-10-12T14:49:03.944Z,21.50
2022-10-12T14:51:53.205Z,21.50
2022-10-12T14:54:38.674Z,21.50
2022-10-12T14:57:28.007Z,21.40
2022-10-12T15:00:25.891Z,21.40
2022-10-12T15:03:11.476Z,21.40
2022-10-12T15:06:00.922Z,21.30
2022-10-12T15:08:46.563Z,21.30
2022-10-12T15:11:32.267Z,21.30
2022-10-12T15:14:17.703Z,21.30
2022-10-12T15:17:03.467Z,21.30
2022-10-12T15:19:50.651Z,21.30
2022-10-12T15:22:35.928Z,21.30
2022-10-12T15:25:47.325Z,21.30
2022-10-12T15:28:33.452Z,21.30
2022-10-12T15:31:19.501Z,21.30
2022-10-12T15:34:12.454Z,21.20
2022-10-12T15:36:57.879Z,21.20
2022-10-12T15:39:43.929Z,21.30
2022-10-12T15:42:29.852Z,21.20
2022-10-12T15:45:22.881Z,21.20
2022-10-12T15:48:09.568Z,21.20
2022-10-12T15:51:09.118Z,21.10
2022-10-12T15:53:55.066Z,21.10
2022-10-12T15:56:40.595Z,21.00
2022-10-12T15:59:27.392Z,21.00
2022-10-12T16:02:14.355Z,20.90
2022-10-12T16:05:00.046Z,20.90
2022-10-12T16:07:46.121Z,20.80
2022-10-12T16:10:37.612Z,20.70
2022-10-12T16:13:24.467Z,20.70
2022-10-12T16:17:00.090Z,20.70
2022-10-12T16:19:46.548Z,20.60
2022-10-12T16:22:33.001Z,20.50
2022-10-12T16:25:35.522Z,20.50
2022-10-12T16:28:22.419Z,20.40
2022-10-12T16:31:15.287Z,20.40
2022-10-12T16:34:00.863Z,20.30
2022-10-12T16:36:46.525Z,20.20
2022-10-12T16:39:32.116Z,20.20
2022-10-12T16:42:22.054Z,20.20
2022-10-12T16:45:08.907Z,20.10
2022-10-12T16:47:54.564Z,20.00
2022-10-12T16:50:46.974Z,19.90
2022-10-12T16:53:35.730Z,19.80
2022-10-12T16:56:23.412Z,19.80
2022-10-12T16:59:09.687Z,19.80
2022-10-12T17:01:55.954Z,19.70
2022-10-12T17:04:41.539Z,19.60
2022-10-12T17:07:27.264Z,19.50
2022-10-12T17:10:13.215Z,19.50
2022-10-12T17:12:58.823Z,19.40
2022-10-12T17:15:44.616Z,19.40
2022-10-12T17:18:30.225Z,19.30
2022-10-12T17:21:16.088Z,19.30
2022-10-12T17:24:02.587Z,19.20
2022-10-12T17:26:48.314Z,19.20
2022-10-12T17:29:41.981Z,19.10
2022-10-12T17:32:27.458Z,19.10
2022-10-12T17:35:13.287Z,19.10
2022-10-12T17:37:59.043Z,19.10
2022-10-12T17:40:51.099Z,19.00
2022-10-12T17:43:37.201Z,19.00
2022-10-12T17:46:23.002Z,18.90
2022-10-12T17:49:12.455Z,18.90
2022-10-12T17:51:58.387Z,18.90
2022-10-12T17:54:44.050Z,18.80
2022-10-12T17:57:29.538Z,18.80
2022-10-12T18:00:15.913Z,18.70
2022-10-12T18:03:01.527Z,18.70
2022-10-12T18:05:47.190Z,18.60
2022-10-12T18:08:33.052Z,18.60
2022-10-12T18:11:20.397Z,18.60
2022-10-12T18:14:09.490Z,18.60
2022-10-12T18:16:55.547Z,18.50
2022-10-12T18:19:41.039Z,18.50
2022-10-12T18:22:26.491Z,18.50
2022-10-12T18:25:12.433Z,18.50
2022-10-12T18:27:57.871Z,18.50
2022-10-12T18:30:50.833Z,18.40
2022-10-12T18:33:36.303Z,18.40
2022-10-12T18:36:21.920Z,18.40
2022-10-12T18:39:07.584Z,18.40
2022-10-12T18:41:53.235Z,18.30
2022-10-12T18:44:40.436Z,18.30
2022-10-12T18:47:25.933Z,18.30
2022-10-12T18:50:11.412Z,18.30
2022-10-12T18:52:56.918Z,18.20
2022-10-12T18:55:42.523Z,18.20
2022-10-12T18:58:28.115Z,18.20
2022-10-12T19:01:17.832Z,18.10
2022-10-12T19:04:06.736Z,18.10
2022-10-12T19:06:56.963Z,18.10
2022-10-12T19:09:43.123Z,18.10
2022-10-12T19:12:28.710Z,18.00
2022-10-12T19:15:14.345Z,18.00
2022-10-12T19:17:59.832Z,18.00
2022-10-12T19:20:45.526Z,18.00
2022-10-12T19:23:31.163Z,17.90
2022-10-12T19:26:23.294Z,17.90
2022-10-12T19:29:09.032Z,17.80
2022-10-12T19:31:56.074Z,17.80
2022-10-12T19:34:41.692Z,17.80
2022-10-12T19:37:27.479Z,17.70
2022-10-12T19:40:14.330Z,17.70
2022-10-12T19:42:59.902Z,17.70
2022-10-12T19:45:45.653Z,17.70
2022-10-12T19:48:31.610Z,17.70
2022-10-12T19:51:17.724Z,17.60
2022-10-12T19:54:05.164Z,17.60
2022-10-12T19:56:50.646Z,17.60
2022-10-12T19:59:36.267Z,17.50
2022-10-12T20:02:22.128Z,17.50
2022-10-12T20:05:08.014Z,17.50
2022-10-12T20:07:53.530Z,17.40
2022-10-12T20:10:39.152Z,17.40
2022-10-12T20:13:24.690Z,17.40
2022-10-12T20:16:10.632Z,17.40
2022-10-12T20:18:56.655Z,17.40
2022-10-12T20:21:42.308Z,17.30
2022-10-12T20:24:27.870Z,17.30
2022-10-12T20:27:13.479Z,17.30
2022-10-12T20:29:59.173Z,17.30
2022-10-12T20:32:44.730Z,17.30
2022-10-12T20:35:31.514Z,17.20
2022-10-12T20:38:18.127Z,17.20
2022-10-12T20:41:05.663Z,17.20
2022-10-12T20:43:56.234Z,17.10
2022-10-12T20:46:45.570Z,17.10
2022-10-12T20:49:31.212Z,17.10
2022-10-12T20:52:17.431Z,17.00
2022-10-12T20:55:03.472Z,17.00
2022-10-12T20:57:49.054Z,17.00
2022-10-12T21:00:34.806Z,17.00
2022-10-12T21:03:20.307Z,17.00
2022-10-12T21:06:08.190Z,17.00
2022-10-12T21:08:55.918Z,17.00
2022-10-12T21:11:43.673Z,17.00
2022-10-12T21:14:31.781Z,16.90
2022-10-12T21:17:17.737Z,18.00
2022-10-12T21:20:03.291Z,16.90
2022-10-12T21:22:51.789Z,16.90
2022-10-12T21:25:37.379Z,16.80
2022-10-12T21:28:23.664Z,16.90
2022-10-12T21:31:10.410Z,16.90
2022-10-12T21:33:55.958Z,16.90
2022-10-12T21:36:41.619Z,16.90
2022-10-12T21:39:27.246Z,16.90
2022-10-12T21:42:12.671Z,16.80
2022-10-12T21:44:58.433Z,16.80
2022-10-12T21:47:43.853Z,16.80
2022-10-12T21:50:29.777Z,16.80
2022-10-12T21:53:15.518Z,16.80
2022-10-12T21:56:06.607Z,16.70
2022-10-12T21:58:53.529Z,16.70
2022-10-12T22:01:40.445Z,16.70
2022-10-12T22:04:26.128Z,16.70
2022-10-12T22:07:11.882Z,16.60
2022-10-12T22:09:57.547Z,16.60
2022-10-12T22:12:43.017Z,16.60
2022-10-12T22:15:28.549Z,16.60
2022-10-12T22:18:15.257Z,16.50
2022-10-12T22:21:16.568Z,16.50
2022-10-12T22:24:02.604Z,16.50
2022-10-12T22:26:48.661Z,16.50
2022-10-12T22:29:35.045Z,16.50
2022-10-12T22:32:21.358Z,16.40
2022-10-12T22:35:07.584Z,16.40
2022-10-12T22:37:53.299Z,16.40
2022-10-12T22:40:38.840Z,16.40
2022-10-12T22:43:25.252Z,16.40
2022-10-12T22:46:11.243Z,16.30
2022-10-12T22:48:56.913Z,16.30
2022-10-12T22:51:42.549Z,16.30
2022-10-12T22:54:28.163Z,16.30
2022-10-12T22:57:13.928Z,16.30
2022-10-12T22:59:59.876Z,16.20
2022-10-12T23:02:47.470Z,16.20
2022-10-12T23:05:33.509Z,16.20
2022-10-12T23:08:19.069Z,16.20
2022-10-12T23:11:12.499Z,16.10
2022-10-12T23:13:58.707Z,16.10
2022-10-12T23:16:44.446Z,16.10
2022-10-12T23:19:30.201Z,16.10
2022-10-12T23:22:15.992Z,16.00
2022-10-12T23:25:01.939Z,16.00
2022-10-12T23:27:47.560Z,16.00
2022-10-12T23:30:33.066Z,15.90
2022-10-12T23:33:18.754Z,16.00
2022-10-12T23:36:07.457Z,15.90
2022-10-12T23:38:53.439Z,15.90
2022-10-12T23:41:38.666Z,15.90
2022-10-12T23:44:24.209Z,15.90
2022-10-12T23:47:09.891Z,15.90
2022-10-12T23:49:55.572Z,15.90
2022-10-12T23:52:41.259Z,15.90
2022-10-12T23:55:27.017Z,15.90
2022-10-12T23:58:12.601Z,15.80
